Time;durP1;ratioP1;P1;durP2;ratioP2;P2;SDS_P1;SDS_P2;PMS_P1;PMS_P2;Temp;Humidity;BMP_temperature;BMP_pressure;BME280_temperature;BME280_humidity;BME280_pressure;Samples;Min_cycle;Max_cycle;Signal;HPM_P1;HPM_P2
2020/12/10 00:00:56;;;;;;;21.07;11.50;;;0.20;99.90;;;;;;5049309;28;21216;-75
2020/12/10 00:03:23;;;;;;;20.77;10.80;;;0.30;99.90;;;;;;5051492;28;20458;-74
2020/12/10 00:05:50;;;;;;;18.73;11.93;;;0.40;99.90;;;;;;5049819;28;20456;-74
2020/12/10 00:08:17;;;;;;;15.40;9.90;;;0.30;99.90;;;;;;5049456;28;20483;-72
2020/12/10 00:10:43;;;;;;;17.70;11.70;;;0.40;99.90;;;;;;5060081;28;20608;-75
2020/12/10 00:13:10;;;;;;;24.73;10.87;;;0.50;99.90;;;;;;5053459;28;20882;-75
2020/12/10 00:15:37;;;;;;;20.73;13.43;;;0.60;99.90;;;;;;5056427;28;20472;-73
2020/12/10 00:18:03;;;;;;;16.83;12.10;;;0.70;99.90;;;;;;5056427;28;20879;-73
2020/12/10 00:20:31;;;;;;;11.03;9.47;;;0.80;99.90;;;;;;5056618;28;20455;-74
2020/12/10 00:22:57;;;;;;;17.53;9.37;;;0.80;99.90;;;;;;5051740;28;20548;-73
2020/12/10 00:25:24;;;;;;;30.70;11.20;;;0.80;99.90;;;;;;5054260;28;20539;-75
2020/12/10 00:27:50;;;;;;;16.10;10.80;;;0.70;99.90;;;;;;5060090;28;20510;-72
2020/12/10 00:30:17;;;;;;;26.30;14.37;;;0.80;99.90;;;;;;5058901;28;20549;-75
2020/12/10 00:32:44;;;;;;;26.30;13.60;;;0.80;99.90;;;;;;5050445;28;21000;-75
2020/12/10 00:35:10;;;;;;;12.20;8.77;;;0.70;99.90;;;;;;5053197;28;20558;-74
2020/12/10 00:37:38;;;;;;;16.03;10.53;;;0.80;99.90;;;;;;5051917;28;20584;-75
2020/12/10 00:40:06;;;;;;;16.30;11.70;;;0.60;99.90;;;;;;5059495;28;20563;-75
2020/12/10 00:42:33;;;;;;;20.97;11.40;;;0.70;99.90;;;;;;5062114;28;20542;-73
2020/12/10 00:44:59;;;;;;;9.90;7.97;;;0.80;99.90;;;;;;5054459;28;20586;-75
2020/12/10 00:47:26;;;;;;;15.97;10.23;;;0.70;99.90;;;;;;5052033;28;20979;-74
2020/12/10 00:49:52;;;;;;;19.83;12.50;;;0.70;99.90;;;;;;5033395;28;20886;-75
2020/12/10 00:52:24;;;;;;;20.90;12.27;;;0.70;99.90;;;;;;5050258;28;23914;-74
2020/12/10 00:54:52;;;;;;;11.30;9.53;;;0.70;99.90;;;;;;5056494;28;20450;-74
2020/12/10 00:57:19;;;;;;;12.37;10.97;;;0.70;99.90;;;;;;5061797;28;20507;-74
2020/12/10 00:59:46;;;;;;;21.30;15.00;;;0.60;99.90;;;;;;5047981;28;20474;-73
2020/12/10 01:02:12;;;;;;;17.57;9.67;;;0.50;99.90;;;;;;5051679;28;20480;-74
2020/12/10 01:04:39;;;;;;;5.60;5.10;;;0.60;99.90;;;;;;5053038;28;24022;-74
2020/12/10 01:07:05;;;;;;;16.13;10.00;;;0.50;99.90;;;;;;5055503;28;20544;-74
2020/12/10 01:09:32;;;;;;;8.23;6.63;;;0.40;99.90;;;;;;5048503;28;20531;-73
2020/12/10 01:12:02;;;;;;;17.57;9.57;;;0.40;99.90;;;;;;5053285;28;20435;-74
2020/12/10 01:14:29;;;;;;;17.60;9.73;;;0.40;99.90;;;;;;5054039;28;20521;-75
2020/12/10 01:16:56;;;;;;;25.60;9.87;;;0.50;99.90;;;;;;5038247;28;20537;-72
2020/12/10 01:19:22;;;;;;;9.30;6.00;;;0.60;99.90;;;;;;5055426;28;20451;-73
2020/12/10 01:21:49;;;;;;;10.27;8.90;;;0.70;99.90;;;;;;5049995;28;20521;-73
2020/12/10 01:24:16;;;;;;;11.63;8.93;;;0.50;99.90;;;;;;5051525;28;20489;-72
2020/12/10 01:26:43;;;;;;;21.27;9.63;;;0.50;99.90;;;;;;5052949;28;20896;-73
2020/12/10 01:29:11;;;;;;;14.83;10.13;;;0.60;99.90;;;;;;5052683;28;20447;-75
2020/12/10 01:31:37;;;;;;;17.40;12.20;;;0.70;99.90;;;;;;5056599;28;20486;-75
2020/12/10 01:34:04;;;;;;;10.63;8.93;;;0.60;99.90;;;;;;5050284;28;21201;-74
2020/12/10 01:36:32;;;;;;;16.40;12.33;;;0.70;99.90;;;;;;5056794;28;20975;-74
2020/12/10 01:38:59;;;;;;;16.53;10.33;;;0.80;99.90;;;;;;5054709;28;20455;-75
2020/12/10 01:41:29;;;;;;;10.07;7.10;;;0.80;99.90;;;;;;5050412;28;20546;-74
2020/12/10 01:44:01;;;;;;;14.27;7.93;;;0.80;99.90;;;;;;5058270;28;20429;-73
2020/12/10 01:46:28;;;;;;;17.70;9.97;;;0.60;99.90;;;;;;5048776;28;20555;-74
2020/12/10 01:48:55;;;;;;;13.70;7.90;;;0.50;99.90;;;;;;5053491;28;20490;-72
2020/12/10 01:51:22;;;;;;;21.50;10.73;;;0.50;99.90;;;;;;5049303;28;20902;-74
2020/12/10 01:53:49;;;;;;;13.40;9.50;;;0.40;99.90;;;;;;5053499;28;20438;-72
2020/12/10 01:56:16;;;;;;;22.47;11.27;;;0.40;99.90;;;;;;5046506;28;20458;-74
2020/12/10 01:58:43;;;;;;;20.07;10.73;;;0.60;99.90;;;;;;5045467;28;22212;-74
2020/12/10 02:01:10;;;;;;;13.13;10.43;;;0.60;99.90;;;;;;5047659;28;20490;-75
2020/12/10 02:03:37;;;;;;;19.03;8.60;;;0.70;99.90;;;;;;5052065;28;20475;-75
2020/12/10 02:06:04;;;;;;;17.13;10.03;;;0.80;99.90;;;;;;5047776;28;20510;-74
2020/12/10 02:08:30;;;;;;;14.90;8.83;;;0.90;99.90;;;;;;5051540;28;20574;-75
2020/12/10 02:10:57;;;;;;;16.63;6.00;;;0.80;99.90;;;;;;5031610;28;20537;-75
2020/12/10 02:13:26;;;;;;;15.90;7.77;;;0.70;99.90;;;;;;5030224;28;20491;-74
2020/12/10 02:15:53;;;;;;;14.87;9.63;;;0.70;99.90;;;;;;5049217;28;20931;-74
2020/12/10 02:18:20;;;;;;;12.17;9.70;;;0.80;99.90;;;;;;5046348;28;20966;-74
2020/12/10 02:20:47;;;;;;;21.00;11.30;;;0.90;99.90;;;;;;5052190;28;20547;-73
2020/12/10 02:23:14;;;;;;;20.30;12.73;;;0.90;99.90;;;;;;5047530;28;20875;-75
2020/12/10 02:25:41;;;;;;;21.83;10.43;;;1.00;99.90;;;;;;5047968;28;20949;-75
2020/12/10 02:28:12;;;;;;;15.50;10.43;;;1.00;99.90;;;;;;5052963;28;20504;-74
2020/12/10 02:30:40;;;;;;;18.20;10.23;;;1.10;99.90;;;;;;5047977;28;20502;-75
2020/12/10 02:33:08;;;;;;;22.23;11.20;;;1.10;99.90;;;;;;5047662;28;20500;-75
2020/12/10 02:35:37;;;;;;;12.50;9.27;;;1.10;99.90;;;;;;5047414;28;20536;-75
2020/12/10 02:38:06;;;;;;;16.20;10.67;;;1.00;99.90;;;;;;5047620;28;20458;-75
2020/12/10 02:40:36;;;;;;;21.67;9.63;;;1.10;99.90;;;;;;5055252;28;20535;-75
2020/12/10 02:43:03;;;;;;;33.03;11.50;;;1.10;99.90;;;;;;5050907;28;20463;-75
2020/12/10 02:45:30;;;;;;;16.77;9.33;;;1.10;99.90;;;;;;5040969;28;21035;-73
2020/12/10 02:47:57;;;;;;;21.50;7.93;;;1.20;99.90;;;;;;5047993;28;21034;-75
2020/12/10 02:50:23;;;;;;;18.97;10.87;;;1.30;99.90;;;;;;5049314;28;20508;-75
2020/12/10 02:52:50;;;;;;;16.33;10.07;;;1.30;99.90;;;;;;5047938;28;20508;-76
2020/12/10 02:55:22;;;;;;;15.70;11.00;;;1.20;99.90;;;;;;5033527;28;20455;-74
2020/12/10 02:57:50;;;;;;;15.13;10.87;;;1.00;99.90;;;;;;5053630;28;20454;-75
2020/12/10 03:00:16;;;;;;;17.27;11.20;;;0.90;99.90;;;;;;5044900;28;20473;-74
2020/12/10 03:02:43;;;;;;;20.33;10.63;;;0.90;99.90;;;;;;5046142;28;20504;-74
2020/12/10 03:05:10;;;;;;;15.63;8.80;;;0.90;99.90;;;;;;5051681;28;20478;-75
2020/12/10 03:07:36;;;;;;;12.77;9.03;;;0.90;99.90;;;;;;5041063;28;20933;-73
2020/12/10 03:10:05;;;;;;;19.40;10.67;;;0.90;99.90;;;;;;5055370;28;20541;-74
2020/12/10 03:12:32;;;;;;;17.00;12.07;;;1.00;99.90;;;;;;5050453;28;20919;-75
2020/12/10 03:14:59;;;;;;;24.20;11.50;;;1.00;99.90;;;;;;5050834;28;20458;-75
2020/12/10 03:17:26;;;;;;;18.97;11.27;;;1.10;99.90;;;;;;5056099;28;20614;-74
2020/12/10 03:19:53;;;;;;;24.67;12.73;;;1.10;99.90;;;;;;5047906;28;20497;-74
2020/12/10 03:22:19;;;;;;;28.83;13.10;;;1.10;99.90;;;;;;5048686;28;20476;-75
2020/12/10 03:24:46;;;;;;;14.73;9.80;;;1.00;99.90;;;;;;5050938;28;20555;-75
2020/12/10 03:27:13;;;;;;;16.40;10.03;;;1.00;99.90;;;;;;5051309;28;20473;-73
2020/12/10 03:29:40;;;;;;;19.80;9.27;;;1.00;99.90;;;;;;5048106;28;20555;-73
2020/12/10 03:32:07;;;;;;;21.57;13.60;;;1.00;99.90;;;;;;5044085;28;20522;-73
2020/12/10 03:34:34;;;;;;;17.93;11.77;;;1.00;99.90;;;;;;5047437;28;21058;-72
2020/12/10 03:37:02;;;;;;;14.40;7.70;;;0.90;99.90;;;;;;5044471;28;20939;-73
2020/12/10 03:39:30;;;;;;;10.00;8.93;;;0.90;99.90;;;;;;5047127;28;20463;-73
2020/12/10 03:41:58;;;;;;;26.13;13.57;;;0.90;99.90;;;;;;5050562;28;20485;-71
2020/12/10 03:44:25;;;;;;;13.83;8.10;;;0.90;99.90;;;;;;5052366;28;20526;-73
2020/12/10 03:46:52;;;;;;;12.53;9.70;;;0.90;99.90;;;;;;5048444;28;20667;-73
2020/12/10 03:49:19;;;;;;;19.57;10.90;;;0.90;99.90;;;;;;5048105;28;20897;-73
2020/12/10 03:51:46;;;;;;;12.90;10.90;;;0.80;99.90;;;;;;5050849;28;20558;-75
2020/12/10 03:54:14;;;;;;;17.60;9.33;;;0.70;99.90;;;;;;5048661;28;20565;-74
2020/12/10 03:56:41;;;;;;;15.57;10.90;;;0.70;99.90;;;;;;5044371;28;20474;-75
2020/12/10 03:59:08;;;;;;;25.70;11.50;;;0.60;99.90;;;;;;5048062;28;20518;-72
2020/12/10 04:01:35;;;;;;;17.17;11.30;;;0.40;99.90;;;;;;5052020;28;20472;-73
2020/12/10 04:04:02;;;;;;;12.90;10.40;;;0.20;99.90;;;;;;5048822;28;20487;-75
2020/12/10 04:06:29;;;;;;;23.80;11.20;;;0.30;99.90;;;;;;5053492;28;20508;-75
2020/12/10 04:08:56;;;;;;;18.40;13.53;;;0.40;99.90;;;;;;5051051;28;20550;-74
2020/12/10 04:11:22;;;;;;;24.80;10.60;;;0.30;99.90;;;;;;5031117;28;20470;-75
2020/12/10 04:13:49;;;;;;;13.10;10.77;;;0.40;99.90;;;;;;5046388;28;20426;-75
2020/12/10 04:16:18;;;;;;;18.70;9.67;;;0.40;99.90;;;;;;5045998;28;20565;-75
2020/12/10 04:18:45;;;;;;;13.13;9.30;;;0.40;99.90;;;;;;5044134;28;20463;-75
2020/12/10 04:21:12;;;;;;;22.83;10.90;;;0.20;99.90;;;;;;5042715;28;20586;-75
2020/12/10 04:23:40;;;;;;;13.30;8.43;;;0.20;99.90;;;;;;5047788;28;20477;-74
2020/12/10 04:26:07;;;;;;;26.47;13.23;;;0.10;99.90;;;;;;5060670;28;20475;-75
2020/12/10 04:28:34;;;;;;;13.67;9.20;;;0.30;99.90;;;;;;5058067;28;21633;-75
2020/12/10 04:31:00;;;;;;;12.80;8.73;;;0.20;99.90;;;;;;5057483;28;20503;-74
2020/12/10 04:33:27;;;;;;;12.90;7.90;;;0.20;99.90;;;;;;5043899;28;20556;-75
2020/12/10 04:35:54;;;;;;;35.30;16.50;;;0.20;99.90;;;;;;5048451;28;23625;-75
2020/12/10 04:38:20;;;;;;;10.77;9.47;;;0.20;99.90;;;;;;5050225;28;20570;-73
2020/12/10 04:40:48;;;;;;;15.00;11.00;;;0.20;99.90;;;;;;5050706;28;20456;-73
2020/12/10 04:43:16;;;;;;;30.73;10.77;;;0.10;99.90;;;;;;5055230;28;20446;-73
2020/12/10 04:45:43;;;;;;;16.83;8.67;;;0.00;99.90;;;;;;5052770;28;20468;-72
2020/12/10 04:48:10;;;;;;;14.67;11.27;;;0.00;99.90;;;;;;5057879;28;20492;-73
2020/12/10 04:50:38;;;;;;;14.37;9.47;;;0.00;99.90;;;;;;5051840;28;20571;-73
2020/12/10 04:53:05;;;;;;;15.60;10.73;;;0.00;99.90;;;;;;5051468;28;20448;-72
2020/12/10 04:55:32;;;;;;;14.87;10.97;;;-0.10;99.90;;;;;;5052792;28;21033;-72
2020/12/10 04:58:00;;;;;;;18.00;8.70;;;-0.10;99.90;;;;;;5054344;28;20504;-73
2020/12/10 05:00:28;;;;;;;19.93;10.00;;;-0.10;99.90;;;;;;5051377;28;20550;-73
2020/12/10 05:02:55;;;;;;;12.37;8.00;;;-0.10;99.90;;;;;;5054040;28;20526;-73
2020/12/10 05:05:27;;;;;;;11.83;9.67;;;-0.20;99.90;;;;;;5048771;28;20430;-69
2020/12/10 05:07:54;;;;;;;13.77;8.30;;;-0.20;99.90;;;;;;5054912;28;20498;-71
2020/12/10 05:10:22;;;;;;;11.47;9.13;;;-0.20;99.90;;;;;;5048371;28;20572;-72
2020/12/10 05:12:50;;;;;;;13.20;9.77;;;-0.30;99.90;;;;;;5056050;28;21288;-72
2020/12/10 05:15:31;;;;;;;13.37;8.10;;;-0.30;99.90;;;;;;5049177;28;20979;-71
2020/12/10 05:18:04;;;;;;;13.90;8.63;;;-0.30;99.90;;;;;;5050227;28;20828;-70
2020/12/10 05:20:39;;;;;;;18.73;8.90;;;-0.30;99.90;;;;;;5048078;28;20462;-72
2020/12/10 05:23:08;;;;;;;9.07;5.77;;;-0.30;99.90;;;;;;5046729;28;20458;-71
2020/12/10 05:25:51;;;;;;;11.90;8.67;;;-0.30;99.90;;;;;;5048830;28;20426;-71
2020/12/10 05:28:19;;;;;;;18.70;10.93;;;-0.40;99.90;;;;;;5058670;28;20481;-71
2020/12/10 05:31:00;;;;;;;10.67;8.43;;;-0.40;99.90;;;;;;5056853;28;20466;-71
2020/12/10 05:36:11;;;;;;;20.43;11.03;;;-0.50;99.90;;;;;;5053477;28;20486;-71
2020/12/10 05:38:55;;;;;;;15.43;11.20;;;-0.40;99.90;;;;;;5051220;28;20875;-71
2020/12/10 05:41:27;;;;;;;12.50;8.50;;;-0.50;99.90;;;;;;5054850;28;20464;-71
2020/12/10 05:43:53;;;;;;;12.00;8.23;;;-0.40;99.90;;;;;;5051615;28;20525;-71
2020/12/10 05:46:22;;;;;;;12.80;9.17;;;-0.50;99.90;;;;;;5059165;28;20487;-71
2020/12/10 05:48:51;;;;;;;13.50;8.47;;;-0.50;99.90;;;;;;5060196;28;20455;-71
2020/12/10 05:51:20;;;;;;;11.17;9.53;;;-0.60;99.90;;;;;;5057404;28;20508;-71
2020/12/10 05:56:36;;;;;;;14.30;8.30;;;-0.60;99.90;;;;;;5057927;28;20989;-71
2020/12/10 05:59:04;;;;;;;18.43;9.00;;;-0.50;99.90;;;;;;5057213;28;20562;-71
2020/12/10 06:01:36;;;;;;;12.60;6.60;;;-0.50;99.90;;;;;;5052702;28;20449;-71
2020/12/10 06:04:03;;;;;;;10.40;9.20;;;-0.50;99.90;;;;;;5066786;28;20944;-70
2020/12/10 06:09:15;;;;;;;24.10;12.27;;;-0.50;99.90;;;;;;5056859;28;20786;-71
2020/12/10 06:11:42;;;;;;;11.20;9.10;;;-0.50;99.90;;;;;;5065435;28;21061;-71
2020/12/10 06:14:17;;;;;;;13.03;9.80;;;-0.40;99.90;;;;;;5055088;28;20467;-72
2020/12/10 06:16:45;;;;;;;9.60;5.77;;;-0.40;99.90;;;;;;5044766;28;20574;-72
2020/12/10 06:19:13;;;;;;;16.90;8.73;;;-0.50;99.90;;;;;;5046406;28;20534;-71
2020/12/10 06:21:43;;;;;;;17.20;8.93;;;-0.60;99.90;;;;;;5057241;28;20463;-71
2020/12/10 06:24:35;;;;;;;15.30;10.20;;;-0.70;99.90;;;;;;5057920;28;20430;-71
2020/12/10 06:27:19;;;;;;;17.57;10.50;;;-0.70;99.90;;;;;;5057091;28;20454;-71
2020/12/10 06:29:46;;;;;;;16.53;8.00;;;-0.70;99.90;;;;;;5057754;28;20594;-72
2020/12/10 06:32:16;;;;;;;16.77;7.73;;;-0.70;99.90;;;;;;5057168;28;20503;-71
2020/12/10 06:34:47;;;;;;;8.50;7.60;;;-0.80;99.90;;;;;;5052516;28;20887;-72
2020/12/10 06:37:21;;;;;;;11.37;8.70;;;-0.70;99.90;;;;;;5048938;28;20483;-71
2020/12/10 06:39:49;;;;;;;17.90;12.90;;;-0.80;99.90;;;;;;5050223;28;20458;-71
2020/12/10 06:42:15;;;;;;;15.50;10.40;;;-0.80;99.90;;;;;;5055656;28;20487;-72
2020/12/10 06:44:42;;;;;;;16.60;9.63;;;-0.80;99.90;;;;;;5051772;28;20927;-71
2020/12/10 06:47:09;;;;;;;12.70;10.97;;;-0.80;99.90;;;;;;5050706;28;20503;-71
2020/12/10 06:49:37;;;;;;;20.87;11.40;;;-0.80;99.90;;;;;;5056961;28;20434;-72
2020/12/10 06:52:22;;;;;;;16.83;9.60;;;-0.80;99.90;;;;;;5050695;28;20486;-72
2020/12/10 06:55:13;;;;;;;8.43;6.97;;;-0.80;99.90;;;;;;5052507;28;20459;-72
2020/12/10 07:00:36;;;;;;;14.90;8.00;;;-0.90;99.90;;;;;;5048220;28;20439;-71
2020/12/10 07:03:09;;;;;;;12.97;8.87;;;-0.90;99.90;;;;;;5064338;28;20483;-72
2020/12/10 07:05:36;;;;;;;12.63;9.70;;;-0.90;99.90;;;;;;5060565;28;20512;-72
2020/12/10 07:08:06;;;;;;;16.70;10.57;;;-0.80;99.90;;;;;;5062355;28;20489;-72
2020/12/10 07:10:41;;;;;;;20.20;10.00;;;-0.90;99.90;;;;;;5062028;28;20520;-72
2020/12/10 07:13:08;;;;;;;10.53;7.17;;;-0.90;99.90;;;;;;5057028;28;20450;-72
2020/12/10 07:15:37;;;;;;;14.07;8.53;;;-1.00;99.90;;;;;;5060321;28;20473;-72
2020/12/10 07:18:05;;;;;;;8.00;5.77;;;-0.90;99.90;;;;;;5064484;28;20477;-71
2020/12/10 07:23:30;;;;;;;16.30;10.70;;;-0.90;99.90;;;;;;5067902;28;20490;-72
2020/12/10 07:25:58;;;;;;;16.80;6.73;;;-0.90;99.90;;;;;;5066556;28;20549;-71
2020/12/10 07:28:26;;;;;;;12.80;10.53;;;-0.90;99.90;;;;;;5061777;28;20577;-72
2020/12/10 07:30:53;;;;;;;12.00;8.60;;;-0.90;99.90;;;;;;5044927;28;20483;-72
2020/12/10 07:33:22;;;;;;;16.93;12.73;;;-1.00;99.90;;;;;;5061144;28;20524;-71
2020/12/10 07:35:51;;;;;;;13.63;10.50;;;-1.00;99.90;;;;;;5050796;28;21120;-72
2020/12/10 07:38:18;;;;;;;12.93;11.37;;;-1.10;99.90;;;;;;5063087;28;20446;-72
2020/12/10 07:40:54;;;;;;;25.80;10.30;;;-1.10;99.90;;;;;;5061871;28;20470;-71
2020/12/10 07:43:20;;;;;;;16.30;10.43;;;-1.00;99.90;;;;;;5056940;28;20457;-72
2020/12/10 07:48:37;;;;;;;15.50;9.13;;;-1.00;99.90;;;;;;5061229;28;20470;-72
2020/12/10 07:51:07;;;;;;;16.90;9.90;;;-0.90;99.90;;;;;;5066935;28;20474;-72
2020/12/10 07:53:35;;;;;;;22.10;9.33;;;-0.80;99.90;;;;;;5036590;28;20510;-71
2020/12/10 07:56:03;;;;;;;11.57;8.40;;;-0.70;99.90;;;;;;5069118;28;20490;-72
2020/12/10 07:58:43;;;;;;;11.53;8.23;;;-0.50;99.90;;;;;;5068403;28;20855;-72
2020/12/10 08:01:12;;;;;;;9.73;7.50;;;-0.40;99.90;;;;;;5060992;28;20452;-73
2020/12/10 08:06:31;;;;;;;21.40;10.80;;;-0.40;99.90;;;;;;5061586;28;20481;-72
2020/12/10 08:11:50;;;;;;;24.90;9.63;;;-0.30;99.90;;;;;;5064334;28;20442;-72
2020/12/10 08:17:19;;;;;;;15.67;9.27;;;-0.10;99.90;;;;;;5073621;28;20455;-72
2020/12/10 08:19:55;;;;;;;15.13;11.17;;;-0.10;99.90;;;;;;5076542;28;20466;-72
2020/12/10 08:25:03;;;;;;;12.00;6.70;;;-0.10;99.90;;;;;;5054486;28;21035;-72
2020/12/10 08:27:34;;;;;;;11.57;9.40;;;-0.10;99.90;;;;;;5063176;28;20866;-72
2020/12/10 08:30:03;;;;;;;24.60;8.80;;;0.00;99.90;;;;;;5059727;28;20455;-73
2020/12/10 08:35:13;;;;;;;24.17;11.70;;;0.10;99.90;;;;;;5059927;28;20418;-72
2020/12/10 08:37:41;;;;;;;16.13;11.13;;;0.20;99.90;;;;;;5034204;28;20972;-72
2020/12/10 08:42:52;;;;;;;37.03;16.40;;;0.80;99.90;;;;;;5064917;28;20447;-72
2020/12/10 08:45:29;;;;;;;20.10;13.73;;;1.50;99.90;;;;;;5067630;28;20872;-72
2020/12/10 08:47:58;;;;;;;29.33;14.00;;;2.20;99.90;;;;;;5054794;28;20541;-72
2020/12/10 08:50:28;;;;;;;19.93;13.83;;;2.60;99.90;;;;;;5068480;28;20480;-72
2020/12/10 08:53:06;;;;;;;21.40;13.60;;;2.70;99.90;;;;;;5057831;28;20445;-73
2020/12/10 08:55:41;;;;;;;32.50;14.17;;;2.70;99.90;;;;;;5062613;28;20433;-72
2020/12/10 08:58:16;;;;;;;26.53;13.83;;;2.70;99.90;;;;;;5069562;28;20958;-72
2020/12/10 09:00:43;;;;;;;24.87;15.27;;;2.70;99.90;;;;;;5062541;28;20529;-72
2020/12/10 09:03:14;;;;;;;22.13;14.90;;;2.70;99.90;;;;;;5065793;28;20462;-72
2020/12/10 09:05:42;;;;;;;32.17;15.47;;;2.80;99.90;;;;;;5056769;28;20867;-71
2020/12/10 09:08:08;;;;;;;30.13;16.27;;;3.10;99.90;;;;;;5060235;28;20457;-71
2020/12/10 09:13:25;;;;;;;23.67;14.90;;;4.80;99.90;;;;;;5061115;28;20451;-72
2020/12/10 09:15:52;;;;;;;26.53;14.50;;;5.20;99.90;;;;;;5062947;28;20445;-71
2020/12/10 09:23:44;;;;;;;29.57;16.90;;;4.50;99.90;;;;;;5084609;28;20458;-71
2020/12/10 09:26:11;;;;;;;25.33;14.63;;;3.90;99.90;;;;;;5077383;28;20457;-71
2020/12/10 09:28:39;;;;;;;22.30;16.60;;;3.60;99.90;;;;;;5080226;28;20454;-71
2020/12/10 09:31:06;;;;;;;35.57;16.10;;;3.40;99.90;;;;;;5063545;28;20518;-72
2020/12/10 09:36:13;;;;;;;23.20;12.80;;;3.50;99.90;;;;;;5063435;28;20458;-72
2020/12/10 09:38:40;;;;;;;22.30;13.70;;;3.50;99.90;;;;;;5067342;28;20432;-72
2020/12/10 09:41:08;;;;;;;19.07;13.97;;;3.50;99.90;;;;;;5067853;28;20459;-72
2020/12/10 09:43:35;;;;;;;22.13;11.67;;;3.50;99.90;;;;;;5069618;28;20452;-72
2020/12/10 09:46:05;;;;;;;26.07;13.20;;;3.70;99.90;;;;;;5067507;28;20463;-72
2020/12/10 09:48:32;;;;;;;26.37;13.47;;;4.00;99.90;;;;;;5065215;28;20992;-72
2020/12/10 09:51:00;;;;;;;19.53;11.50;;;4.10;99.90;;;;;;5058076;28;20446;-71
2020/12/10 09:53:33;;;;;;;27.57;15.70;;;4.00;99.90;;;;;;5057854;28;20433;-71
2020/12/10 09:58:48;;;;;;;26.70;12.90;;;4.20;99.90;;;;;;5050060;28;20442;-71
2020/12/10 10:04:14;;;;;;;21.43;9.40;;;4.30;99.90;;;;;;5058307;28;20963;-72
2020/12/10 10:09:25;;;;;;;21.97;14.50;;;4.20;99.90;;;;;;5057764;28;20447;-72
2020/12/10 10:14:39;;;;;;;28.60;15.50;;;4.40;99.90;;;;;;5058155;28;20439;-71
2020/12/10 10:17:07;;;;;;;21.40;13.60;;;4.20;99.90;;;;;;5054485;28;20490;-72
2020/12/10 10:22:17;;;;;;;22.47;13.37;;;3.90;99.90;;;;;;5057396;28;20419;-73
2020/12/10 10:24:44;;;;;;;26.27;12.57;;;4.00;99.90;;;;;;5058214;28;20441;-71
2020/12/10 10:27:11;;;;;;;27.57;14.17;;;4.00;99.90;;;;;;5062697;28;20494;-73
2020/12/10 10:32:22;;;;;;;28.33;12.83;;;4.20;99.90;;;;;;5066475;28;20437;-72
2020/12/10 10:34:49;;;;;;;33.13;13.80;;;4.20;99.90;;;;;;5064055;28;20460;-73
2020/12/10 10:37:31;;;;;;;21.57;14.10;;;4.30;99.90;;;;;;5072509;28;20531;-71
2020/12/10 10:39:58;;;;;;;19.00;11.33;;;4.40;99.90;;;;;;5070790;28;20434;-72
2020/12/10 10:42:25;;;;;;;18.63;10.20;;;4.40;99.90;;;;;;5067022;28;20461;-75
2020/12/10 10:47:34;;;;;;;29.23;12.70;;;4.30;99.90;;;;;;5051434;28;20438;-73
2020/12/10 10:50:00;;;;;;;19.03;11.33;;;4.70;99.90;;;;;;5054255;28;20571;-73
2020/12/10 10:55:08;;;;;;;16.70;12.07;;;4.90;99.90;;;;;;5050406;28;20436;-72
2020/12/10 10:57:35;;;;;;;19.40;10.90;;;4.90;99.90;;;;;;5058303;28;20465;-72
2020/12/10 11:00:03;;;;;;;20.20;12.17;;;4.80;99.90;;;;;;5053961;28;20546;-72
2020/12/10 11:02:29;;;;;;;14.50;10.00;;;4.80;99.90;;;;;;5065506;28;20983;-72
2020/12/10 11:04:57;;;;;;;19.07;10.03;;;4.80;99.90;;;;;;5062505;28;20516;-72
2020/12/10 11:07:23;;;;;;;17.13;9.90;;;4.80;99.90;;;;;;5050430;28;20533;-73
2020/12/10 11:12:31;;;;;;;18.60;8.40;;;4.90;99.90;;;;;;5057291;28;20467;-72
2020/12/10 11:14:58;;;;;;;18.60;9.17;;;4.80;99.90;;;;;;5051562;28;20442;-71
2020/12/10 11:17:33;;;;;;;16.10;8.80;;;5.00;99.90;;;;;;5055293;28;20446;-73
2020/12/10 11:20:18;;;;;;;14.20;9.23;;;4.80;99.90;;;;;;5053648;28;20988;-71
2020/12/10 11:22:45;;;;;;;22.57;10.27;;;4.60;99.90;;;;;;5048953;28;20464;-73
2020/12/10 11:25:12;;;;;;;18.33;9.20;;;4.80;99.90;;;;;;5048318;28;21819;-71
2020/12/10 11:27:41;;;;;;;17.33;9.60;;;4.70;99.90;;;;;;5053545;28;20461;-72
2020/12/10 11:30:07;;;;;;;15.03;7.00;;;4.90;99.90;;;;;;5050512;28;20505;-72
2020/12/10 11:35:32;;;;;;;10.30;8.30;;;4.90;99.90;;;;;;5050852;28;20451;-71
2020/12/10 11:38:22;;;;;;;17.60;8.43;;;4.50;99.90;;;;;;5053848;28;21142;-72
2020/12/10 11:43:32;;;;;;;14.30;7.10;;;4.20;99.90;;;;;;5046787;28;20943;-72
2020/12/10 11:46:01;;;;;;;20.57;10.60;;;4.30;99.90;;;;;;5057035;28;20482;-72
2020/12/10 11:48:53;;;;;;;21.47;8.80;;;4.30;99.90;;;;;;5050669;28;20988;-72
2020/12/10 11:51:20;;;;;;;10.53;7.47;;;4.40;99.90;;;;;;5051510;28;20470;-73
2020/12/10 11:53:48;;;;;;;20.00;10.47;;;4.50;99.90;;;;;;5050106;28;20467;-72
2020/12/10 11:56:15;;;;;;;5.83;4.87;;;4.70;99.90;;;;;;5032976;28;20467;-72
2020/12/10 11:58:42;;;;;;;10.40;5.23;;;4.60;99.90;;;;;;5059021;28;20475;-72
2020/12/10 12:01:09;;;;;;;17.03;8.53;;;4.20;99.90;;;;;;5057450;28;20476;-72
2020/12/10 12:04:00;;;;;;;16.33;9.43;;;4.20;99.90;;;;;;5052960;28;20963;-71
2020/12/10 12:06:27;;;;;;;14.70;8.13;;;4.60;99.90;;;;;;5051127;28;20972;-72
2020/12/10 12:08:54;;;;;;;21.13;9.20;;;4.60;99.90;;;;;;5053169;28;20522;-72
2020/12/10 12:11:43;;;;;;;12.17;8.50;;;4.60;99.90;;;;;;5065276;28;20452;-72
2020/12/10 12:19:32;;;;;;;10.93;8.27;;;4.60;99.90;;;;;;5059760;28;20804;-71
2020/12/10 12:27:23;;;;;;;15.53;8.63;;;4.80;99.90;;;;;;5050583;28;20914;-72
2020/12/10 12:32:34;;;;;;;14.53;6.83;;;6.00;99.90;;;;;;5058740;28;20482;-72
2020/12/10 12:35:02;;;;;;;18.70;7.10;;;6.00;99.90;;;;;;5049293;28;20467;-74
2020/12/10 12:37:34;;;;;;;16.10;7.07;;;5.80;99.90;;;;;;5052944;28;20484;-71
2020/12/10 12:42:57;;;;;;;15.63;9.07;;;5.50;99.90;;;;;;5059896;28;20441;-70
2020/12/10 12:48:05;;;;;;;12.27;5.73;;;5.60;99.90;;;;;;5052910;28;20820;-72
2020/12/10 12:56:10;;;;;;;12.30;8.33;;;4.90;99.90;;;;;;5054546;28;20434;-73
2020/12/10 12:59:01;;;;;;;11.27;7.93;;;5.00;99.90;;;;;;5065927;28;20477;-73
2020/12/10 13:01:28;;;;;;;12.57;6.97;;;5.00;99.90;;;;;;5068089;28;20479;-73
2020/12/10 13:04:24;;;;;;;13.30;7.20;;;5.10;99.90;;;;;;5066184;28;20461;-72
2020/12/10 13:06:51;;;;;;;9.57;5.20;;;5.20;99.90;;;;;;5059638;28;20923;-71
2020/12/10 13:09:20;;;;;;;10.53;7.23;;;5.70;99.90;;;;;;5071294;28;20502;-72
2020/12/10 13:12:15;;;;;;;16.10;8.57;;;6.30;99.90;;;;;;5064060;28;20462;-72
2020/12/10 13:14:42;;;;;;;9.63;7.67;;;6.80;99.90;;;;;;5071134;28;20471;-71
2020/12/10 13:17:08;;;;;;;11.30;7.20;;;7.40;99.90;;;;;;5062395;28;20474;-72
2020/12/10 13:25:08;;;;;;;13.30;7.60;;;8.10;99.90;;;;;;5058997;28;20460;-72
2020/12/10 13:27:34;;;;;;;21.63;9.87;;;7.50;99.90;;;;;;5066485;28;20526;-72
2020/12/10 13:32:44;;;;;;;13.70;7.47;;;7.10;99.90;;;;;;5053871;28;20465;-72
2020/12/10 13:37:52;;;;;;;12.07;6.37;;;7.50;99.90;;;;;;5070141;28;20553;-71
2020/12/10 13:40:20;;;;;;;17.40;8.00;;;7.60;99.90;;;;;;5066006;28;20490;-72
2020/12/10 13:42:46;;;;;;;8.93;5.40;;;7.80;99.90;;;;;;5059091;28;20483;-71
2020/12/10 13:48:31;;;;;;;8.10;6.30;;;6.90;99.90;;;;;;5059618;28;20562;-70
2020/12/10 13:50:57;;;;;;;14.30;7.67;;;6.60;99.90;;;;;;5060842;28;20490;-70
2020/12/10 13:53:24;;;;;;;14.90;8.00;;;6.30;99.90;;;;;;5057723;28;20455;-71
2020/12/10 13:55:52;;;;;;;10.90;7.10;;;6.20;99.90;;;;;;5060148;28;20490;-71
2020/12/10 13:58:42;;;;;;;14.30;9.30;;;5.90;99.90;;;;;;5071557;28;20505;-72
2020/12/10 14:01:09;;;;;;;13.63;8.10;;;5.70;99.90;;;;;;5077941;28;20456;-70
2020/12/10 14:03:36;;;;;;;10.37;6.80;;;5.50;99.90;;;;;;5058196;28;20470;-71
2020/12/10 14:06:20;;;;;;;13.93;9.53;;;5.20;99.90;;;;;;5060552;28;20544;-72
2020/12/10 14:08:46;;;;;;;14.73;8.37;;;5.10;99.90;;;;;;5063159;28;21033;-72
2020/12/10 14:11:22;;;;;;;12.47;8.30;;;5.00;99.90;;;;;;5043507;28;20483;-71
2020/12/10 14:13:49;;;;;;;13.13;6.90;;;4.90;99.90;;;;;;5061792;28;20433;-71
2020/12/10 14:16:15;;;;;;;12.00;7.27;;;4.60;99.90;;;;;;5057501;28;20483;-73
2020/12/10 14:18:42;;;;;;;12.10;8.67;;;4.40;99.90;;;;;;5060401;28;20487;-71
2020/12/10 14:21:11;;;;;;;12.13;7.57;;;4.30;99.90;;;;;;5068000;28;20517;-72
2020/12/10 14:26:36;;;;;;;14.23;7.20;;;4.20;99.90;;;;;;5057841;28;20819;-71
2020/12/10 14:31:46;;;;;;;13.20;6.97;;;4.10;99.90;;;;;;5066541;28;20445;-72
2020/12/10 14:34:38;;;;;;;13.80;6.43;;;4.00;99.90;;;;;;5061547;28;20464;-72
2020/12/10 14:37:06;;;;;;;15.07;7.40;;;4.00;99.90;;;;;;5066599;28;20601;-73
2020/12/10 14:39:33;;;;;;;9.57;5.93;;;4.10;99.90;;;;;;5061212;28;20459;-72
2020/12/10 14:47:23;;;;;;;10.27;7.67;;;3.80;99.90;;;;;;5060312;28;20546;-72
2020/12/10 14:50:28;;;;;;;13.50;9.00;;;3.80;99.90;;;;;;5069563;28;20477;-72
2020/12/10 14:52:55;;;;;;;9.03;5.50;;;3.70;99.90;;;;;;5064542;28;20531;-72
2020/12/10 14:55:25;;;;;;;13.73;7.40;;;3.60;99.90;;;;;;5072504;28;20546;-72